Viboras, Texas
Current Conditions -  °F | °C
As of 3:35 PM on Friday 31 Oct 2014 (Local Time) from KHBV Reporting Station
Scattered Clouds Scattered Clouds  
Wind Chill: 77°   Ceiling: Unl
Heat Index: 78°   Visibility: 10mi
Dew Point: 49°   Wind: 9mph
Humidity: 37%   Direction: 40°NE
Pressure: 30.19"   Gusts: 18mph
Location:  27.0695°N, 98.7494°W
Report Text: KHBV 312035Z AUTO 04008G16KT 10SM SCT049 25/10 A3019 RMK AO2 T02510095 PWINO
Loading
Personal Weather Stations






























Interactive Weather Map
Tropical Storm Tracking
New forecast layout! Learn more

10-Day Weather Forecast

Advertisements
Track Severe Weather on mobile